Time;durP1;ratioP1;P1;durP2;ratioP2;P2;SDS_P1;SDS_P2;PMS_P1;PMS_P2;Temp;Humidity;BMP_temperature;BMP_pressure;BME280_temperature;BME280_humidity;BME280_pressure;Samples;Min_cycle;Max_cycle;Signal;HPM_P1;HPM_P2
2022/03/05 00:04:55;;;;;;;;;;;;;;;;;;;;;
2022/03/05 00:41:36;;;;;;;38.30;19.93;;;7.10;70.10;;;;;;5971875;23;20214;-82
2022/03/05 00:44:01;;;;;;;34.83;18.30;;;7.20;69.50;;;;;;6037081;23;20159;-83
2022/03/05 00:46:27;;;;;;;34.07;19.27;;;7.30;69.70;;;;;;6115662;23;20245;-82
2022/03/05 00:48:53;;;;;;;33.90;18.60;;;7.20;70.40;;;;;;6239470;22;20162;-83
2022/03/05 00:51:19;;;;;;;37.90;20.03;;;7.10;71.00;;;;;;6277050;22;20726;-83
2022/03/05 00:53:45;;;;;;;35.50;20.50;;;7.00;71.50;;;;;;6277484;22;20139;-82
2022/03/05 00:56:11;;;;;;;33.63;19.37;;;7.00;71.50;;;;;;6277571;22;20196;-83
2022/03/05 00:58:37;;;;;;;37.73;20.30;;;7.00;71.70;;;;;;6276915;22;20161;-83
2022/03/05 01:01:04;;;;;;;37.30;20.17;;;6.80;71.90;;;;;;6250222;22;20190;-82
2022/03/05 01:03:29;;;;;;;35.37;19.30;;;6.70;72.40;;;;;;6249516;22;20234;-83
2022/03/05 01:05:55;;;;;;;33.90;19.90;;;6.70;72.60;;;;;;6250245;22;20185;-82
2022/03/05 01:08:21;;;;;;;36.43;19.80;;;6.70;73.30;;;;;;6249849;22;20143;-83
2022/03/05 01:10:46;;;;;;;35.50;20.07;;;6.60;72.30;;;;;;6250015;22;20181;-82
2022/03/05 01:13:12;;;;;;;37.43;20.40;;;6.70;72.20;;;;;;6249852;22;20157;-82
2022/03/05 01:15:38;;;;;;;37.70;19.97;;;6.60;73.00;;;;;;6250201;22;20147;-82
2022/03/05 01:18:04;;;;;;;36.47;19.90;;;6.60;72.90;;;;;;6277149;22;20147;-82
2022/03/05 01:20:30;;;;;;;35.20;19.73;;;6.60;72.10;;;;;;6250520;22;20191;-82
2022/03/05 01:22:55;;;;;;;38.93;21.03;;;6.70;71.90;;;;;;6277245;22;20217;-83
2022/03/05 01:25:21;;;;;;;38.60;20.10;;;6.60;71.90;;;;;;6249768;22;20652;-83
2022/03/05 01:27:47;;;;;;;36.50;20.77;;;6.60;72.80;;;;;;6249822;22;20145;-82
2022/03/05 01:30:13;;;;;;;35.60;18.97;;;6.50;71.90;;;;;;6250122;22;20591;-82
2022/03/05 01:32:38;;;;;;;33.20;19.87;;;6.40;72.60;;;;;;6250266;22;20158;-82
2022/03/05 01:35:04;;;;;;;37.13;19.37;;;6.40;72.60;;;;;;6249765;22;20276;-81
2022/03/05 01:37:30;;;;;;;36.77;19.47;;;6.60;72.60;;;;;;6249844;22;20170;-82
2022/03/05 01:39:56;;;;;;;33.83;19.43;;;6.60;72.70;;;;;;6249261;22;20186;-82
2022/03/05 01:42:22;;;;;;;35.97;19.80;;;6.50;72.70;;;;;;6248982;22;20234;-82
2022/03/05 01:44:48;;;;;;;33.43;20.50;;;6.40;72.50;;;;;;6276632;22;20559;-82
2022/03/05 01:47:14;;;;;;;34.87;20.97;;;6.30;73.60;;;;;;6276535;22;20139;-83
2022/03/05 01:49:39;;;;;;;35.60;20.33;;;6.30;74.00;;;;;;6249747;22;20229;-82
2022/03/05 01:52:05;;;;;;;36.40;20.53;;;6.20;74.20;;;;;;6276746;22;20142;-83
2022/03/05 01:54:31;;;;;;;38.00;20.63;;;6.20;73.90;;;;;;6249680;22;20161;-82
2022/03/05 01:56:59;;;;;;;40.73;20.77;;;6.40;73.60;;;;;;6276258;22;20146;-82
2022/03/05 01:59:26;;;;;;;38.80;21.33;;;6.30;73.50;;;;;;6250523;22;20154;-81
2022/03/05 02:01:51;;;;;;;38.33;21.70;;;6.30;73.60;;;;;;6277867;22;20211;-82
2022/03/05 02:04:17;;;;;;;38.63;20.70;;;6.40;73.50;;;;;;6249334;22;20197;-82
2022/03/05 02:06:43;;;;;;;39.93;20.83;;;6.30;73.40;;;;;;6250137;22;20491;-82
2022/03/05 02:09:10;;;;;;;39.47;21.33;;;6.20;74.00;;;;;;6277783;22;20138;-82
2022/03/05 02:11:36;;;;;;;40.90;20.73;;;6.00;74.70;;;;;;6277686;22;20151;-82
2022/03/05 02:14:02;;;;;;;35.97;20.13;;;6.00;75.70;;;;;;6277500;22;20449;-82
2022/03/05 02:16:29;;;;;;;37.63;20.83;;;5.90;76.20;;;;;;6277747;22;20134;-82
2022/03/05 02:18:55;;;;;;;37.83;20.57;;;5.80;75.70;;;;;;6251162;22;20233;-82
2022/03/05 02:21:25;;;;;;;34.50;19.60;;;5.80;75.70;;;;;;6278727;22;20166;-94
2022/03/05 02:23:52;;;;;;;33.80;20.33;;;5.80;75.70;;;;;;6252050;22;20150;-92
2022/03/05 02:26:18;;;;;;;37.80;20.40;;;5.80;75.90;;;;;;6251869;22;20161;-94
2022/03/05 02:28:45;;;;;;;40.90;20.57;;;5.80;75.90;;;;;;6252454;22;20147;-93
2022/03/05 02:31:12;;;;;;;34.83;19.90;;;5.80;75.80;;;;;;6252281;22;20201;-93
2022/03/05 02:33:43;;;;;;;40.90;20.80;;;5.70;76.50;;;;;;6251329;22;20152;-93
2022/03/05 02:36:09;;;;;;;35.10;20.70;;;5.60;76.90;;;;;;6252303;22;20198;-93
2022/03/05 02:38:38;;;;;;;39.33;20.80;;;5.50;77.10;;;;;;6252180;22;20170;-93
2022/03/05 02:41:04;;;;;;;37.63;21.10;;;5.50;77.10;;;;;;6251944;22;20232;-94
2022/03/05 02:43:33;;;;;;;37.57;20.87;;;5.50;77.10;;;;;;6252463;22;20224;-93
2022/03/05 02:45:59;;;;;;;41.37;20.87;;;5.50;77.50;;;;;;6253178;22;20174;-92
2022/03/05 02:48:26;;;;;;;36.40;20.37;;;5.50;77.70;;;;;;6252490;22;20209;-93
2022/03/05 02:50:51;;;;;;;34.43;19.60;;;5.40;77.80;;;;;;6252097;22;20155;-93
2022/03/05 02:53:17;;;;;;;37.07;20.80;;;5.30;78.50;;;;;;6252161;22;20288;-93
2022/03/05 02:55:47;;;;;;;40.40;20.57;;;5.40;78.50;;;;;;6251781;22;20169;-94
2022/03/05 02:58:13;;;;;;;36.70;20.50;;;5.30;78.50;;;;;;6251728;22;20152;-93
2022/03/05 03:00:42;;;;;;;34.50;19.30;;;5.40;78.80;;;;;;6251946;22;20182;-91
2022/03/05 03:03:08;;;;;;;42.27;21.03;;;5.50;78.50;;;;;;6251775;22;20261;-87
2022/03/05 03:05:37;;;;;;;34.27;21.03;;;5.40;78.40;;;;;;6252283;22;20180;-93
2022/03/05 03:08:05;;;;;;;41.50;21.77;;;5.50;78.30;;;;;;6252222;22;20547;-94
2022/03/05 03:10:32;;;;;;;31.30;18.87;;;5.30;79.40;;;;;;6251943;22;20531;-93
2022/03/05 03:13:00;;;;;;;35.27;20.97;;;5.10;80.00;;;;;;6252993;22;20245;-93
2022/03/05 03:15:29;;;;;;;34.67;19.20;;;5.00;80.50;;;;;;6252648;22;20179;-94
2022/03/05 03:17:57;;;;;;;37.60;20.17;;;5.00;80.90;;;;;;6252645;22;20155;-93
2022/03/05 03:20:26;;;;;;;37.60;21.57;;;4.90;81.50;;;;;;6252814;22;20178;-94
2022/03/05 03:22:54;;;;;;;36.77;20.47;;;4.80;81.00;;;;;;6257126;22;20142;-87
2022/03/05 03:25:21;;;;;;;38.43;20.03;;;4.90;81.20;;;;;;6276672;22;20149;-84
2022/03/05 03:27:50;;;;;;;35.90;20.23;;;5.00;81.00;;;;;;6267300;22;20163;-92
2022/03/05 03:30:17;;;;;;;37.37;21.30;;;4.90;81.80;;;;;;6273926;22;20143;-89
2022/03/05 03:32:46;;;;;;;43.20;22.03;;;4.80;82.40;;;;;;6275111;22;20125;-90
2022/03/05 03:35:14;;;;;;;42.00;21.63;;;4.80;82.10;;;;;;6273546;22;20147;-92
2022/03/05 03:37:49;;;;;;;40.27;21.20;;;4.60;82.50;;;;;;6261922;22;20181;-93
2022/03/05 03:40:21;;;;;;;37.20;19.83;;;4.50;83.30;;;;;;6264454;22;20212;-92
2022/03/05 03:42:49;;;;;;;49.17;21.50;;;4.50;83.20;;;;;;6254763;22;20160;-91
2022/03/05 03:45:21;;;;;;;37.90;20.63;;;4.40;83.60;;;;;;6253986;22;20150;-92
2022/03/05 03:47:49;;;;;;;40.77;21.67;;;4.40;83.90;;;;;;6251349;22;20153;-92
2022/03/05 03:50:20;;;;;;;37.83;21.47;;;4.40;84.10;;;;;;6251415;22;20240;-93
2022/03/05 03:52:46;;;;;;;38.30;21.20;;;4.50;84.20;;;;;;6251430;22;20153;-93
2022/03/05 03:55:17;;;;;;;44.13;21.50;;;4.40;84.70;;;;;;6251327;22;20184;-92
2022/03/05 03:57:46;;;;;;;40.43;22.40;;;4.40;84.50;;;;;;6251710;22;20204;-92
2022/03/05 04:00:16;;;;;;;36.60;20.30;;;4.40;85.10;;;;;;6251665;22;20176;-93
2022/03/05 04:02:42;;;;;;;33.53;20.13;;;4.50;85.10;;;;;;6251589;22;20587;-92
2022/03/05 04:05:11;;;;;;;35.40;20.50;;;4.40;85.80;;;;;;6251512;22;20148;-93
2022/03/05 04:10:25;;;;;;;41.60;21.40;;;4.20;87.10;;;;;;6277854;22;20141;-92
2022/03/05 04:12:53;;;;;;;37.63;20.83;;;4.10;87.70;;;;;;6251277;22;20160;-89
2022/03/05 04:15:20;;;;;;;36.47;20.80;;;4.10;88.10;;;;;;6251244;22;20148;-87
2022/03/05 04:17:50;;;;;;;37.10;21.43;;;4.00;87.80;;;;;;6251304;22;20487;-92
2022/03/05 04:20:19;;;;;;;38.17;20.40;;;4.10;87.90;;;;;;6251155;22;20194;-91
2022/03/05 04:22:48;;;;;;;33.53;20.20;;;4.00;88.40;;;;;;6278147;22;20578;-92
2022/03/05 04:25:16;;;;;;;35.67;20.03;;;4.00;88.70;;;;;;6251112;22;20227;-92
2022/03/05 04:27:45;;;;;;;37.13;20.40;;;4.00;88.80;;;;;;6251157;22;20533;-91
2022/03/05 04:30:11;;;;;;;40.07;21.27;;;3.90;89.20;;;;;;6251398;22;20155;-89
2022/03/05 04:32:41;;;;;;;40.77;21.83;;;3.80;89.90;;;;;;6251157;22;20231;-92
2022/03/05 04:35:08;;;;;;;39.37;20.67;;;3.80;89.90;;;;;;6250928;22;20171;-94
2022/03/05 04:37:37;;;;;;;40.30;20.27;;;3.80;90.00;;;;;;6251379;22;20629;-93
2022/03/05 04:40:05;;;;;;;39.87;20.90;;;3.70;90.10;;;;;;6251452;22;20232;-92
2022/03/05 04:42:31;;;;;;;37.43;20.93;;;3.80;90.10;;;;;;6250663;22;20224;-92
2022/03/05 04:45:08;;;;;;;38.60;21.57;;;3.80;90.10;;;;;;6251468;22;20575;-89
2022/03/05 04:47:37;;;;;;;36.87;21.10;;;3.80;90.30;;;;;;6251075;22;20152;-92
2022/03/05 04:50:05;;;;;;;39.10;21.47;;;3.70;90.40;;;;;;6250840;22;20182;-90
2022/03/05 04:52:31;;;;;;;39.10;20.77;;;3.70;90.70;;;;;;6250505;22;20202;-92
2022/03/05 04:54:59;;;;;;;40.43;21.23;;;3.70;90.80;;;;;;6251135;22;20136;-91
2022/03/05 04:57:25;;;;;;;39.77;22.00;;;3.60;91.00;;;;;;6250768;22;20186;-92
2022/03/05 04:59:54;;;;;;;39.03;20.23;;;3.60;91.20;;;;;;6250973;22;20563;-92
2022/03/05 05:02:22;;;;;;;37.37;20.93;;;3.60;91.40;;;;;;6250778;22;20568;-91
2022/03/05 05:04:54;;;;;;;45.33;21.50;;;3.60;91.10;;;;;;6250401;22;20519;-92
2022/03/05 05:07:23;;;;;;;37.60;20.93;;;3.60;91.20;;;;;;6250831;22;20564;-92
2022/03/05 05:09:50;;;;;;;39.63;20.10;;;3.70;91.20;;;;;;6250712;22;20152;-94
2022/03/05 05:12:17;;;;;;;36.70;20.27;;;3.60;91.40;;;;;;6250822;22;20178;-92
2022/03/05 05:14:46;;;;;;;41.10;21.77;;;3.50;91.50;;;;;;6250999;22;20243;-94
2022/03/05 05:17:12;;;;;;;38.10;20.77;;;3.40;91.90;;;;;;6250981;22;20569;-92
2022/03/05 05:19:41;;;;;;;38.73;20.70;;;3.40;92.10;;;;;;6250519;22;20480;-94
2022/03/05 05:22:08;;;;;;;38.63;21.13;;;3.40;92.10;;;;;;6251229;22;20170;-95
2022/03/05 05:24:35;;;;;;;37.53;21.30;;;3.40;92.10;;;;;;6250982;22;20145;-94
2022/03/05 05:27:04;;;;;;;39.43;21.77;;;3.40;92.30;;;;;;6250808;22;20180;-93
2022/03/05 05:29:32;;;;;;;39.93;22.37;;;3.40;92.20;;;;;;6250570;22;20147;-95
2022/03/05 05:31:58;;;;;;;38.87;21.90;;;3.60;92.00;;;;;;6250889;22;20156;-93
2022/03/05 05:34:30;;;;;;;44.20;22.63;;;3.50;92.10;;;;;;6252720;22;20172;-93
2022/03/05 05:36:59;;;;;;;45.70;23.23;;;3.60;92.40;;;;;;6253000;22;20155;-94
2022/03/05 05:39:24;;;;;;;44.00;22.70;;;4.10;91.90;;;;;;6252748;22;20147;-93
2022/03/05 05:41:50;;;;;;;38.87;21.07;;;4.70;90.00;;;;;;6252499;22;20187;-92
2022/03/05 05:44:18;;;;;;;38.10;20.97;;;4.40;90.10;;;;;;6252748;22;20231;-94
2022/03/05 05:46:47;;;;;;;41.57;21.20;;;4.20;91.00;;;;;;6252814;22;20150;-92
2022/03/05 05:49:14;;;;;;;41.90;21.67;;;4.50;90.30;;;;;;6252363;22;20140;-95
2022/03/05 05:51:42;;;;;;;39.13;21.37;;;4.60;90.10;;;;;;6253320;22;20185;-91
2022/03/05 05:54:09;;;;;;;43.27;21.27;;;4.40;90.70;;;;;;6252805;22;20150;-92
2022/03/05 05:56:38;;;;;;;38.10;21.73;;;4.30;91.10;;;;;;6252837;22;20152;-92
2022/03/05 05:59:06;;;;;;;40.87;21.53;;;4.10;91.70;;;;;;6252580;22;20156;-94
2022/03/05 06:01:31;;;;;;;39.37;20.40;;;3.90;92.40;;;;;;6273972;22;20169;-92
2022/03/05 06:03:58;;;;;;;40.00;20.70;;;4.10;92.20;;;;;;6275429;22;20181;-92
2022/03/05 06:06:26;;;;;;;43.07;22.33;;;4.40;91.90;;;;;;6254174;22;20154;-93
2022/03/05 06:08:55;;;;;;;38.90;21.60;;;4.50;91.60;;;;;;6253020;22;20153;-94
2022/03/05 06:11:21;;;;;;;39.03;20.47;;;4.20;91.80;;;;;;6252345;22;20165;-94
2022/03/05 06:13:49;;;;;;;42.13;21.33;;;4.00;92.60;;;;;;6252126;22;20597;-93
2022/03/05 06:16:16;;;;;;;45.10;22.67;;;3.90;93.10;;;;;;6252703;22;20178;-93
2022/03/05 06:18:42;;;;;;;41.20;22.53;;;3.80;93.30;;;;;;6252136;22;20197;-92
2022/03/05 06:21:08;;;;;;;38.80;21.57;;;3.70;93.40;;;;;;6252006;22;20199;-93
2022/03/05 06:23:35;;;;;;;37.03;20.17;;;3.70;93.40;;;;;;6252159;22;20167;-93
2022/03/05 06:26:01;;;;;;;37.00;20.97;;;3.60;93.80;;;;;;6252194;22;20147;-92
2022/03/05 06:28:28;;;;;;;36.00;21.10;;;3.50;94.20;;;;;;6252426;22;20184;-93
2022/03/05 06:30:54;;;;;;;36.80;20.73;;;3.40;94.60;;;;;;6252126;22;20151;-94
2022/03/05 06:33:21;;;;;;;41.33;21.53;;;3.50;95.10;;;;;;6252213;22;20463;-93
2022/03/05 06:35:50;;;;;;;41.27;22.37;;;3.50;94.50;;;;;;6252355;22;20174;-91
2022/03/05 06:38:17;;;;;;;43.47;20.83;;;3.50;94.40;;;;;;6252221;22;20172;-92
2022/03/05 06:40:46;;;;;;;37.50;21.20;;;3.50;94.40;;;;;;6251759;22;20185;-93
2022/03/05 06:43:15;;;;;;;35.23;20.27;;;3.50;94.50;;;;;;6252111;22;20145;-92
2022/03/05 06:45:43;;;;;;;37.03;20.80;;;3.70;94.00;;;;;;6251709;22;20238;-93
2022/03/05 06:48:15;;;;;;;40.57;22.17;;;3.60;94.10;;;;;;6252033;22;20591;-93
2022/03/05 06:50:44;;;;;;;36.97;20.97;;;3.50;94.40;;;;;;6252207;22;20146;-93
2022/03/05 06:53:09;;;;;;;40.97;21.50;;;3.50;94.40;;;;;;6252091;22;20222;-92
2022/03/05 06:55:35;;;;;;;35.87;21.27;;;3.50;94.70;;;;;;6252063;22;20578;-90
2022/03/05 06:58:01;;;;;;;42.00;22.57;;;3.60;94.50;;;;;;6251663;22;20139;-91
2022/03/05 07:00:27;;;;;;;43.20;22.83;;;3.40;94.90;;;;;;6251327;22;20191;-91
2022/03/05 07:02:52;;;;;;;45.23;21.37;;;3.50;95.00;;;;;;6251811;22;20600;-93
2022/03/05 07:05:21;;;;;;;41.03;21.67;;;3.40;95.20;;;;;;6251811;22;20175;-92
2022/03/05 07:07:49;;;;;;;43.93;22.20;;;3.50;95.40;;;;;;6251778;22;20144;-91
2022/03/05 07:10:18;;;;;;;42.97;21.83;;;3.50;95.20;;;;;;6251585;22;20156;-91
2022/03/05 07:12:45;;;;;;;44.33;21.43;;;3.50;95.40;;;;;;6251858;22;20139;-92
2022/03/05 07:15:11;;;;;;;37.30;22.30;;;3.60;95.50;;;;;;6251873;22;20154;-90
2022/03/05 07:17:51;;;;;;;45.77;22.50;;;3.70;95.30;;;;;;6251793;22;20154;-92
2022/03/05 07:20:18;;;;;;;46.20;24.17;;;3.90;95.00;;;;;;6251319;22;20222;-91
2022/03/05 07:22:44;;;;;;;41.63;22.97;;;3.90;95.10;;;;;;6251705;22;20156;-94
2022/03/05 07:25:14;;;;;;;41.43;21.77;;;3.80;95.40;;;;;;6251899;22;20479;-91
2022/03/05 07:27:42;;;;;;;38.57;20.90;;;3.80;95.50;;;;;;6253395;22;20572;-91
2022/03/05 07:30:11;;;;;;;40.27;22.03;;;3.80;95.60;;;;;;6251166;22;20151;-91
2022/03/05 07:32:37;;;;;;;41.43;21.50;;;3.80;95.70;;;;;;6278394;22;20165;-91
2022/03/05 07:35:04;;;;;;;41.30;20.87;;;3.90;95.80;;;;;;6252064;22;20169;-91
2022/03/05 07:37:33;;;;;;;37.53;21.97;;;4.10;95.40;;;;;;6252041;22;20226;-90
2022/03/05 07:40:02;;;;;;;47.90;23.07;;;4.10;95.30;;;;;;6253062;22;20213;-91
2022/03/05 07:42:28;;;;;;;45.17;22.03;;;4.10;95.50;;;;;;6253310;22;20138;-87
2022/03/05 07:44:54;;;;;;;36.40;21.43;;;4.10;95.20;;;;;;6258429;22;20159;-89
2022/03/05 07:47:22;;;;;;;42.97;22.03;;;4.20;94.90;;;;;;6259846;22;20149;-94
2022/03/05 07:49:48;;;;;;;36.87;22.07;;;4.20;95.10;;;;;;6264832;22;20563;-92
2022/03/05 07:52:14;;;;;;;39.47;23.10;;;4.20;95.50;;;;;;6267287;22;20198;-95
2022/03/05 07:54:41;;;;;;;45.97;22.63;;;4.40;95.30;;;;;;6293281;22;20149;-91
2022/03/05 07:57:07;;;;;;;43.97;23.30;;;4.50;95.00;;;;;;6269791;22;20208;-91
2022/03/05 07:59:36;;;;;;;39.50;22.07;;;4.70;95.00;;;;;;6265508;22;20187;-94
2022/03/05 08:02:08;;;;;;;40.67;21.90;;;4.90;94.80;;;;;;6253971;22;20154;-91
2022/03/05 08:04:36;;;;;;;42.13;20.43;;;5.30;93.60;;;;;;6252952;22;20178;-91
2022/03/05 08:07:23;;;;;;;43.63;20.77;;;5.70;91.10;;;;;;6251842;22;20147;-93
2022/03/05 08:09:48;;;;;;;41.50;20.13;;;6.00;89.50;;;;;;6251404;22;20187;-93
2022/03/05 08:12:17;;;;;;;45.57;20.93;;;6.20;85.70;;;;;;6251558;22;20140;-94
2022/03/05 08:14:47;;;;;;;37.90;19.03;;;6.40;82.60;;;;;;6251438;22;20229;-93
2022/03/05 08:17:15;;;;;;;43.00;18.77;;;6.40;82.20;;;;;;6251356;22;20237;-91
2022/03/05 08:19:44;;;;;;;38.33;19.07;;;6.30;81.30;;;;;;6251159;22;20186;-93
2022/03/05 08:22:10;;;;;;;41.67;18.93;;;6.30;81.30;;;;;;6251399;22;20636;-93
2022/03/05 08:24:40;;;;;;;36.30;19.00;;;6.10;81.50;;;;;;6251132;22;20148;-94
2022/03/05 08:27:08;;;;;;;37.63;19.17;;;6.20;82.00;;;;;;6250567;22;20144;-90
2022/03/05 08:29:36;;;;;;;40.30;20.27;;;6.10;81.60;;;;;;6251237;22;20160;-92
2022/03/05 08:32:03;;;;;;;39.53;19.70;;;6.20;81.60;;;;;;6251021;22;20153;-92
2022/03/05 08:34:29;;;;;;;37.80;18.33;;;6.20;81.70;;;;;;6251484;22;20163;-92
2022/03/05 08:36:54;;;;;;;43.33;20.50;;;6.30;81.30;;;;;;6251435;22;20139;-89
2022/03/05 08:39:21;;;;;;;34.53;18.53;;;6.50;80.90;;;;;;6252200;22;20241;-92
2022/03/05 08:41:48;;;;;;;40.50;20.63;;;6.60;80.90;;;;;;6265132;22;20511;-88
2022/03/05 08:44:14;;;;;;;34.03;19.00;;;6.60;81.00;;;;;;6270739;22;20143;-90
2022/03/05 08:46:40;;;;;;;40.20;19.03;;;6.70;80.10;;;;;;6257289;22;20151;-89
2022/03/05 08:49:09;;;;;;;40.67;19.77;;;6.70;80.70;;;;;;6250061;22;20575;-91
2022/03/05 08:51:35;;;;;;;37.10;19.60;;;6.60;80.70;;;;;;6252014;22;20142;-92
2022/03/05 08:54:04;;;;;;;38.77;19.10;;;6.70;81.20;;;;;;6255397;22;20204;-94
2022/03/05 08:56:33;;;;;;;38.80;19.07;;;6.80;81.20;;;;;;6251083;22;20152;-94
2022/03/05 08:59:01;;;;;;;43.07;20.63;;;6.90;81.00;;;;;;6250851;22;20160;-92
2022/03/05 09:01:27;;;;;;;39.00;20.53;;;7.10;80.80;;;;;;6250118;22;20269;-93
2022/03/05 09:03:53;;;;;;;38.77;20.53;;;7.20;80.10;;;;;;6250100;22;20184;-94
2022/03/05 09:06:19;;;;;;;37.30;19.47;;;7.30;79.60;;;;;;6251361;22;20243;-94
2022/03/05 09:08:45;;;;;;;37.97;19.07;;;7.30;79.30;;;;;;6257562;22;20144;-93
2022/03/05 09:11:13;;;;;;;36.70;19.57;;;7.40;79.10;;;;;;6250414;22;20146;-93
2022/03/05 09:13:42;;;;;;;42.47;20.70;;;7.50;79.00;;;;;;6250604;22;20158;-89
2022/03/05 09:16:11;;;;;;;40.17;20.87;;;7.50;78.80;;;;;;6251333;22;20157;-90
2022/03/05 09:18:42;;;;;;;41.93;21.00;;;7.60;78.50;;;;;;6250485;22;20181;-92
2022/03/05 09:21:11;;;;;;;42.17;20.83;;;7.60;78.80;;;;;;6250917;22;20244;-93
2022/03/05 09:23:39;;;;;;;38.90;21.10;;;7.70;78.30;;;;;;6250747;22;20191;-91
2022/03/05 09:26:06;;;;;;;40.00;20.90;;;7.60;78.90;;;;;;6250578;22;20147;-92
2022/03/05 09:28:37;;;;;;;39.63;20.60;;;7.60;79.40;;;;;;6250709;22;20233;-92
2022/03/05 09:31:05;;;;;;;40.13;21.37;;;7.70;79.10;;;;;;6250417;22;20165;-90
2022/03/05 09:33:31;;;;;;;39.87;21.63;;;7.90;78.50;;;;;;6250968;22;20145;-91
2022/03/05 09:35:59;;;;;;;38.00;20.53;;;8.20;77.40;;;;;;6250417;22;20193;-90
2022/03/05 09:38:28;;;;;;;37.73;22.00;;;8.20;77.10;;;;;;6250502;22;20181;-91
2022/03/05 09:41:00;;;;;;;40.83;21.10;;;8.40;76.60;;;;;;6248842;22;20181;-93
2022/03/05 09:43:31;;;;;;;39.07;21.07;;;8.20;77.10;;;;;;6249032;22;20145;-93
2022/03/05 09:45:58;;;;;;;37.17;20.30;;;8.20;77.40;;;;;;6247326;22;20169;-86
2022/03/05 09:48:26;;;;;;;36.13;20.80;;;8.30;77.60;;;;;;6245612;22;20146;-87
2022/03/05 09:50:54;;;;;;;40.20;22.03;;;8.20;77.40;;;;;;6276337;22;20139;-87
2022/03/05 09:53:22;;;;;;;39.90;20.43;;;8.30;77.20;;;;;;6248990;22;20147;-87
2022/03/05 09:55:49;;;;;;;41.10;20.77;;;8.30;77.60;;;;;;6248367;22;20150;-85
2022/03/05 09:58:15;;;;;;;42.00;20.40;;;8.30;77.50;;;;;;6248502;22;20490;-85
2022/03/05 10:00:41;;;;;;;41.50;20.70;;;8.40;77.20;;;;;;6275798;22;20266;-83
2022/03/05 10:03:07;;;;;;;40.60;20.83;;;8.50;77.20;;;;;;6248859;22;20497;-86
2022/03/05 10:05:34;;;;;;;37.57;21.00;;;8.60;77.20;;;;;;6249092;22;20154;-86
2022/03/05 10:08:08;;;;;;;41.60;21.13;;;8.60;77.40;;;;;;6249119;22;20237;-82
2022/03/05 10:11:06;;;;;;;41.07;21.47;;;8.50;79.50;;;;;;6275520;22;20633;-84
2022/03/05 10:13:33;;;;;;;39.40;21.53;;;8.50;80.50;;;;;;6258507;22;20606;-85
2022/03/05 10:16:07;;;;;;;39.97;21.73;;;8.50;81.10;;;;;;6248849;22;20161;-84
2022/03/05 10:18:38;;;;;;;38.97;21.33;;;8.60;82.00;;;;;;6249197;22;20907;-83
2022/03/05 10:21:09;;;;;;;38.07;22.33;;;8.70;81.20;;;;;;6250982;22;20165;-85
2022/03/05 10:23:41;;;;;;;42.70;21.63;;;8.70;81.30;;;;;;6250700;22;20154;-83
2022/03/05 10:26:09;;;;;;;42.90;22.57;;;8.90;80.90;;;;;;6277939;22;20567;-83
2022/03/05 10:28:35;;;;;;;39.33;21.87;;;8.80;81.00;;;;;;6251162;22;20158;-84
2022/03/05 10:31:10;;;;;;;40.00;22.67;;;8.90;81.40;;;;;;6250396;22;20599;-84
2022/03/05 10:33:43;;;;;;;40.33;22.70;;;9.00;81.60;;;;;;6251167;22;20154;-86
2022/03/05 10:36:23;;;;;;;43.83;22.83;;;9.10;81.90;;;;;;6278781;22;20143;-84
2022/03/05 10:39:02;;;;;;;40.83;23.03;;;9.30;81.70;;;;;;6251468;22;20170;-84
2022/03/05 10:41:35;;;;;;;41.90;22.73;;;9.30;81.50;;;;;;6252292;22;20150;-87
2022/03/05 10:44:06;;;;;;;44.20;23.20;;;9.40;80.30;;;;;;6250217;22;20161;-85
2022/03/05 10:46:42;;;;;;;40.23;21.93;;;9.40;80.50;;;;;;6275194;22;20161;-83
2022/03/05 10:49:14;;;;;;;37.67;22.03;;;9.40;80.90;;;;;;6249575;22;20157;-83
2022/03/05 10:51:40;;;;;;;39.97;21.93;;;9.40;82.10;;;;;;6250457;22;20252;-85
2022/03/05 10:54:05;;;;;;;45.33;22.00;;;9.50;82.20;;;;;;6249237;22;20154;-84
2022/03/05 10:56:33;;;;;;;42.87;23.27;;;9.60;80.90;;;;;;6250291;22;20155;-84
2022/03/05 10:59:05;;;;;;;42.30;22.60;;;9.60;80.70;;;;;;6252868;22;20478;-84
2022/03/05 11:01:32;;;;;;;41.80;21.73;;;9.80;79.70;;;;;;6280111;22;20169;-85
2022/03/05 11:04:00;;;;;;;40.67;22.43;;;10.10;79.70;;;;;;6252739;22;20641;-85
2022/03/05 11:06:27;;;;;;;40.97;22.80;;;10.70;78.20;;;;;;6252892;22;20223;-85
2022/03/05 11:08:53;;;;;;;37.43;21.50;;;11.80;77.00;;;;;;6252422;22;20143;-84
2022/03/05 11:11:20;;;;;;;36.40;21.97;;;13.00;73.10;;;;;;6253024;22;20661;-84
2022/03/05 11:13:46;;;;;;;42.47;22.30;;;14.20;70.40;;;;;;6251045;22;20173;-84
2022/03/05 11:16:12;;;;;;;36.90;22.10;;;15.20;67.30;;;;;;6249511;22;20614;-84
2022/03/05 11:18:41;;;;;;;34.37;21.63;;;15.90;65.70;;;;;;6277696;22;20140;-84
2022/03/05 11:21:08;;;;;;;38.73;22.37;;;16.80;62.60;;;;;;6251372;22;20170;-84
2022/03/05 11:23:37;;;;;;;34.07;21.77;;;17.70;60.40;;;;;;6279919;22;20131;-85
2022/03/05 11:26:07;;;;;;;35.73;22.53;;;18.10;59.10;;;;;;6252181;22;20154;-83
2022/03/05 11:28:40;;;;;;;33.03;22.37;;;18.90;58.00;;;;;;6250128;22;20143;-85
2022/03/05 11:31:24;;;;;;;31.90;21.77;;;19.60;56.70;;;;;;6249923;22;20255;-85
2022/03/05 11:33:50;;;;;;;33.10;21.80;;;20.10;55.50;;;;;;6250082;22;20176;-86
2022/03/05 11:36:23;;;;;;;32.57;22.37;;;20.40;54.30;;;;;;6276403;22;20605;-85
2022/03/05 11:39:12;;;;;;;30.67;22.53;;;20.90;53.30;;;;;;6249577;22;20167;-85
2022/03/05 11:42:01;;;;;;;36.53;24.03;;;21.50;52.10;;;;;;6276804;22;20649;-85
2022/03/05 11:44:29;;;;;;;30.77;22.17;;;21.90;52.00;;;;;;6279264;22;20182;-85
2022/03/05 11:47:32;;;;;;;34.93;21.73;;;21.70;51.70;;;;;;6254195;22;20245;-86
2022/03/05 11:49:58;;;;;;;31.83;22.73;;;21.90;52.00;;;;;;6253052;22;20189;-85
2022/03/05 11:52:46;;;;;;;30.70;22.30;;;22.40;51.20;;;;;;6255195;22;20150;-86
2022/03/05 11:55:25;;;;;;;32.57;21.90;;;22.60;50.40;;;;;;6240412;22;20176;-86
2022/03/05 11:57:51;;;;;;;32.20;22.13;;;23.30;49.40;;;;;;6253173;22;20155;-84
2022/03/05 12:00:31;;;;;;;30.43;21.37;;;23.50;49.10;;;;;;6253912;22;20644;-84
2022/03/05 12:02:58;;;;;;;29.37;20.80;;;23.50;48.80;;;;;;6254317;22;20150;-85
2022/03/05 12:05:35;;;;;;;30.77;22.60;;;24.10;48.00;;;;;;6254816;22;20169;-86
2022/03/05 12:08:02;;;;;;;31.67;22.53;;;23.80;48.20;;;;;;6253879;22;20191;-85
2022/03/05 12:10:29;;;;;;;31.20;22.87;;;23.90;48.00;;;;;;6281688;22;20172;-85
2022/03/05 12:13:02;;;;;;;26.43;21.10;;;23.70;48.40;;;;;;6254557;22;20143;-85
2022/03/05 12:15:40;;;;;;;27.93;21.07;;;24.00;47.30;;;;;;6254465;22;20166;-85
2022/03/05 12:18:12;;;;;;;29.87;21.83;;;23.90;46.90;;;;;;6256795;22;20483;-85
2022/03/05 12:20:42;;;;;;;33.23;22.73;;;24.90;46.20;;;;;;6284211;22;20179;-86
2022/03/05 12:23:10;;;;;;;29.83;21.13;;;24.90;45.80;;;;;;6282959;22;20143;-86
2022/03/05 12:25:40;;;;;;;28.77;21.10;;;25.30;45.00;;;;;;6255891;22;20150;-87
2022/03/05 12:28:23;;;;;;;25.50;19.87;;;25.00;45.10;;;;;;6251944;22;20439;-86
2022/03/05 12:30:49;;;;;;;27.03;19.83;;;25.70;44.80;;;;;;6250042;22;20209;-86
2022/03/05 12:33:16;;;;;;;27.17;19.52;;;25.50;44.90;;;;;;6250402;22;20594;-85
2022/03/05 12:35:45;;;;;;;27.67;20.90;;;25.90;44.00;;;;;;6248649;22;20172;-85
2022/03/05 12:38:18;;;;;;;28.55;20.75;;;26.20;44.30;;;;;;6248642;22;20170;-85
2022/03/05 12:40:44;;;;;;;29.52;20.17;;;26.50;44.20;;;;;;6249085;22;20154;-87
2022/03/05 12:43:10;;;;;;;29.85;20.67;;;26.70;43.60;;;;;;6276308;22;20225;-86
2022/03/05 12:45:38;;;;;;;26.65;20.58;;;26.30;44.10;;;;;;6250812;22;20167;-85
2022/03/05 12:48:18;;;;;;;32.83;21.52;;;26.40;43.80;;;;;;6249263;22;20151;-86
2022/03/05 12:50:48;;;;;;;28.33;20.48;;;26.80;43.20;;;;;;6248850;22;20184;-85
2022/03/05 12:53:17;;;;;;;29.58;20.98;;;27.00;42.80;;;;;;6248888;22;20159;-87
2022/03/05 12:55:50;;;;;;;27.88;20.52;;;27.10;42.40;;;;;;6249190;22;20169;-86
2022/03/05 12:58:18;;;;;;;27.20;19.58;;;27.50;42.50;;;;;;6249711;22;20158;-86
2022/03/05 13:00:46;;;;;;;27.33;20.33;;;28.20;41.50;;;;;;6249598;22;20177;-86
2022/03/05 13:03:13;;;;;;;26.37;19.83;;;28.10;41.10;;;;;;6248623;22;20146;-86
2022/03/05 13:05:40;;;;;;;25.10;19.42;;;27.70;41.50;;;;;;6249263;22;20180;-85
2022/03/05 13:08:10;;;;;;;30.25;21.00;;;27.10;42.40;;;;;;6249320;22;20158;-84
2022/03/05 13:10:36;;;;;;;24.27;19.77;;;26.80;42.20;;;;;;6249423;22;20262;-87
2022/03/05 13:13:01;;;;;;;23.02;16.88;;;26.90;41.90;;;;;;6275950;22;20175;-86
2022/03/05 13:15:32;;;;;;;23.38;17.92;;;27.80;39.10;;;;;;6249660;22;20185;-86
2022/03/05 13:18:15;;;;;;;24.52;18.63;;;27.60;40.10;;;;;;6248826;22;20155;-86
2022/03/05 13:20:43;;;;;;;25.10;18.27;;;27.40;40.00;;;;;;6248988;22;20181;-86
2022/03/05 13:23:09;;;;;;;22.02;15.82;;;28.10;39.60;;;;;;6276053;22;20475;-86